Time;durP1;ratioP1;P1;durP2;ratioP2;P2;SDS_P1;SDS_P2;PMS_P1;PMS_P2;Temp;Humidity;BMP_temperature;BMP_pressure;BME280_temperature;BME280_humidity;BME280_pressure;Samples;Min_cycle;Max_cycle;Signal;HPM_P1;HPM_P2
2022/05/10 00:00:15;;;;;;;11.15;8.90;;;15.60;99.90;;;;;;4967169;28;20023;-95
2022/05/10 00:02:45;;;;;;;11.98;8.55;;;15.70;99.90;;;;;;4965847;28;20084;-94
2022/05/10 00:05:11;;;;;;;10.50;8.13;;;15.70;99.90;;;;;;4964612;28;20019;-95
2022/05/10 00:07:37;;;;;;;15.40;8.50;;;15.90;99.90;;;;;;4971170;28;20030;-96
2022/05/10 00:10:09;;;;;;;13.10;9.00;;;16.00;99.90;;;;;;4963690;28;20098;-95
2022/05/10 00:12:35;;;;;;;14.63;9.25;;;16.00;99.90;;;;;;4949341;28;20115;-96
2022/05/10 00:15:01;;;;;;;10.05;8.50;;;16.00;99.90;;;;;;4963669;28;20045;-96
2022/05/10 00:17:39;;;;;;;13.38;8.05;;;15.90;99.90;;;;;;4971491;28;20031;-96
2022/05/10 00:20:08;;;;;;;12.15;8.30;;;16.00;99.90;;;;;;4969393;28;20035;-96
2022/05/10 00:22:37;;;;;;;11.73;8.20;;;16.10;99.90;;;;;;4972509;28;20073;-94
2022/05/10 00:25:05;;;;;;;13.40;8.30;;;16.00;99.90;;;;;;4968598;28;20114;-93
2022/05/10 00:27:31;;;;;;;10.88;8.25;;;16.00;99.90;;;;;;4963766;28;20438;-94
2022/05/10 00:29:57;;;;;;;10.20;7.60;;;16.10;99.90;;;;;;4973320;28;20031;-96
2022/05/10 00:32:25;;;;;;;10.95;7.55;;;16.10;99.90;;;;;;4972693;28;20121;-95
2022/05/10 00:34:51;;;;;;;10.73;8.10;;;16.20;99.90;;;;;;4961108;28;20019;-95
2022/05/10 00:37:20;;;;;;;12.88;8.10;;;16.30;99.90;;;;;;4951430;28;20042;-95
2022/05/10 00:39:46;;;;;;;11.00;7.95;;;16.30;99.90;;;;;;4968153;28;20031;-94
2022/05/10 00:42:32;;;;;;;9.77;7.72;;;16.30;99.90;;;;;;4968985;28;20109;-93
2022/05/10 00:45:15;;;;;;;15.60;8.20;;;16.40;99.90;;;;;;4968230;28;20027;-92
2022/05/10 00:48:03;;;;;;;12.23;7.72;;;16.50;99.90;;;;;;4963795;28;20023;-93
2022/05/10 00:50:40;;;;;;;8.75;7.35;;;16.50;99.90;;;;;;4967399;28;20031;-94
2022/05/10 00:53:11;;;;;;;7.93;7.07;;;16.50;99.90;;;;;;4967246;28;20402;-94
2022/05/10 00:56:05;;;;;;;10.68;7.85;;;16.60;99.90;;;;;;4965710;28;20474;-94
2022/05/10 00:59:08;;;;;;;9.77;7.63;;;16.60;99.90;;;;;;4967301;28;20403;-95
2022/05/10 01:01:36;;;;;;;10.50;7.57;;;16.60;99.90;;;;;;4951040;28;20030;-93
2022/05/10 01:04:11;;;;;;;14.70;8.20;;;16.60;99.90;;;;;;4964653;28;20406;-93
2022/05/10 01:07:03;;;;;;;12.23;7.72;;;16.50;99.90;;;;;;4951627;28;20436;-91
2022/05/10 01:09:38;;;;;;;11.52;7.80;;;16.40;99.90;;;;;;4964073;28;20098;-93
2022/05/10 01:12:12;;;;;;;16.58;7.60;;;16.40;99.90;;;;;;4947286;28;20045;-93
2022/05/10 01:14:54;;;;;;;12.68;8.45;;;16.40;99.90;;;;;;4955153;28;20029;-93
2022/05/10 01:17:19;;;;;;;16.10;8.02;;;16.30;99.90;;;;;;4967867;28;20037;-93
2022/05/10 01:19:48;;;;;;;14.65;7.60;;;16.30;99.90;;;;;;4962846;28;20202;-92
2022/05/10 01:22:41;;;;;;;11.00;7.40;;;16.40;99.90;;;;;;4961132;28;20081;-96
2022/05/10 01:25:20;;;;;;;10.73;7.78;;;16.40;99.90;;;;;;4961492;28;20126;-96
2022/05/10 01:27:51;;;;;;;9.57;7.30;;;16.40;99.90;;;;;;4969602;28;20113;-96
2022/05/10 01:30:31;;;;;;;14.30;8.13;;;16.40;99.90;;;;;;4973774;28;20041;-95
2022/05/10 01:35:52;;;;;;;12.98;7.80;;;16.30;99.90;;;;;;4966486;28;20094;-95
2022/05/10 01:38:39;;;;;;;10.77;8.10;;;16.30;99.90;;;;;;4950091;28;20125;-96
2022/05/10 01:41:31;;;;;;;9.73;7.43;;;16.30;99.90;;;;;;4965408;28;20046;-96
2022/05/10 01:44:08;;;;;;;10.88;7.55;;;16.40;99.90;;;;;;4929031;28;20074;-94
2022/05/10 01:46:34;;;;;;;9.93;7.70;;;16.40;99.90;;;;;;4944864;28;20038;-95
2022/05/10 01:49:31;;;;;;;9.25;7.70;;;16.30;99.90;;;;;;4959784;28;20039;-92
2022/05/10 01:52:15;;;;;;;13.02;7.97;;;16.30;99.90;;;;;;4950188;28;20050;-96
2022/05/10 01:54:56;;;;;;;10.48;7.60;;;16.30;99.90;;;;;;4973647;28;20382;-96
2022/05/10 01:57:22;;;;;;;11.57;8.05;;;16.30;99.90;;;;;;4958620;28;20047;-96
2022/05/10 01:59:57;;;;;;;13.68;7.88;;;16.30;99.90;;;;;;4939619;29;20475;-93
2022/05/10 02:02:26;;;;;;;14.75;7.68;;;16.30;99.90;;;;;;4941132;28;20031;-93
2022/05/10 02:04:55;;;;;;;11.05;7.20;;;16.40;99.90;;;;;;4949204;29;20054;-94
2022/05/10 02:07:24;;;;;;;10.15;7.53;;;16.50;99.90;;;;;;4953851;28;20031;-91
2022/05/10 02:10:17;;;;;;;;;;;;;;;;;;;;;
2022/05/10 02:12:46;;;;;;;11.85;7.60;;;16.60;99.90;;;;;;4948226;28;20043;-93
2022/05/10 02:15:21;;;;;;;11.27;7.95;;;16.60;99.90;;;;;;4951347;29;20066;-94
2022/05/10 02:18:01;;;;;;;12.70;8.00;;;16.60;99.90;;;;;;4932799;29;20471;-93
2022/05/10 02:20:31;;;;;;;9.93;8.07;;;16.60;99.90;;;;;;4952296;28;20032;-96
2022/05/10 02:23:25;;;;;;;14.20;7.93;;;16.70;99.90;;;;;;4957064;28;20019;-96
2022/05/10 02:26:01;;;;;;;8.13;7.32;;;16.70;99.90;;;;;;4960348;29;20061;-96
2022/05/10 02:28:42;;;;;;;10.55;8.23;;;16.70;99.90;;;;;;4951087;28;20027;-96
2022/05/10 02:31:28;;;;;;;11.82;7.78;;;16.60;99.90;;;;;;4938814;28;20502;-96
2022/05/10 02:33:55;;;;;;;12.98;8.73;;;16.50;99.90;;;;;;4953235;28;20019;-96
2022/05/10 02:36:23;;;;;;;10.32;7.88;;;16.50;99.90;;;;;;4956514;28;20086;-95
2022/05/10 02:38:49;;;;;;;11.60;7.75;;;16.50;99.90;;;;;;4944435;29;20062;-96
2022/05/10 02:41:22;;;;;;;8.98;7.82;;;16.60;99.90;;;;;;4963030;28;20050;-96
2022/05/10 02:43:50;;;;;;;;;;;16.60;99.90;;;;;;4960133;28;20241;-96
2022/05/10 02:46:17;;;;;;;11.25;8.55;;;16.80;99.90;;;;;;4956334;29;19945;-96
2022/05/10 02:48:44;;;;;;;9.65;7.35;;;16.80;99.90;;;;;;4933642;29;20031;-94
2022/05/10 02:51:09;;;;;;;9.98;8.23;;;16.80;99.90;;;;;;4953447;28;20058;-96
2022/05/10 02:53:35;;;;;;;15.35;7.53;;;16.70;99.90;;;;;;4959676;29;20038;-96
2022/05/10 02:56:08;;;;;;;13.15;7.88;;;16.70;99.90;;;;;;4961914;28;20028;-96
2022/05/10 02:58:52;;;;;;;9.50;7.45;;;16.60;99.90;;;;;;4974796;28;20081;-96
2022/05/10 03:01:21;;;;;;;16.20;7.90;;;16.60;99.90;;;;;;4976984;28;20098;-96
2022/05/10 03:03:47;;;;;;;10.63;7.93;;;16.70;99.90;;;;;;4984657;28;20021;-96
2022/05/10 03:14:09;;;;;;;12.55;8.52;;;16.50;99.90;;;;;;2365048;23;20059;-96
2022/05/10 03:16:49;;;;;;;11.88;8.00;;;16.50;99.90;;;;;;4984249;28;20041;-96
2022/05/10 03:19:18;;;;;;;14.52;8.18;;;16.40;99.90;;;;;;4978259;28;20030;-96
2022/05/10 03:21:53;;;;;;;11.60;8.23;;;16.40;99.90;;;;;;4990033;28;20030;-96
2022/05/10 03:24:19;;;;;;;10.93;7.88;;;16.50;99.90;;;;;;4991593;28;20035;-96
2022/05/10 03:26:51;;;;;;;12.05;7.80;;;16.50;99.90;;;;;;4979846;28;20398;-96
2022/05/10 03:29:20;;;;;;;12.43;8.20;;;16.40;99.90;;;;;;4979543;28;20034;-96
2022/05/10 03:31:49;;;;;;;14.00;8.60;;;16.30;99.90;;;;;;4983483;28;20119;-96
2022/05/10 03:36:59;;;;;;;11.05;8.60;;;16.30;99.90;;;;;;4975676;28;20034;-96
2022/05/10 03:39:25;;;;;;;16.10;8.73;;;16.30;99.90;;;;;;4984670;28;20027;-96
2022/05/10 03:41:51;;;;;;;16.67;8.82;;;16.20;99.90;;;;;;5003968;28;20031;-96
2022/05/10 03:44:20;;;;;;;11.55;8.32;;;16.20;99.90;;;;;;4994123;28;20047;-96
2022/05/10 03:46:51;;;;;;;12.02;8.70;;;16.10;99.90;;;;;;4996834;28;19999;-96
2022/05/10 03:49:17;;;;;;;11.25;8.35;;;16.10;99.90;;;;;;4994535;28;20041;-96
2022/05/10 03:51:45;;;;;;;10.63;8.30;;;16.10;99.90;;;;;;4993120;28;20027;-96
2022/05/10 03:54:14;;;;;;;16.83;8.20;;;16.10;99.90;;;;;;4992042;28;20038;-96
2022/05/10 03:56:40;;;;;;;10.02;7.97;;;16.10;99.90;;;;;;4987745;28;20035;-96
2022/05/10 03:59:06;;;;;;;10.18;8.45;;;16.10;99.90;;;;;;4984353;28;20034;-95
2022/05/10 04:01:32;;;;;;;12.85;8.30;;;16.00;99.90;;;;;;4999658;28;20494;-95
2022/05/10 04:03:58;;;;;;;11.35;8.38;;;16.10;99.90;;;;;;4992972;28;19999;-96
2022/05/10 04:06:24;;;;;;;14.38;8.77;;;16.00;99.90;;;;;;4992764;28;20027;-96
2022/05/10 04:08:55;;;;;;;11.43;9.10;;;16.00;99.90;;;;;;4990034;28;20088;-96
2022/05/10 04:11:20;;;;;;;13.77;8.35;;;16.00;99.90;;;;;;4994419;28;20060;-96
2022/05/10 04:13:50;;;;;;;13.20;9.02;;;16.00;99.90;;;;;;4991638;28;20031;-96
2022/05/10 04:16:16;;;;;;;11.73;8.63;;;16.00;99.90;;;;;;4995472;28;20034;-96
2022/05/10 04:18:42;;;;;;;11.32;9.10;;;16.00;99.90;;;;;;4982430;28;20015;-96
2022/05/10 04:21:14;;;;;;;12.95;9.07;;;16.00;99.90;;;;;;4987106;28;20044;-96
2022/05/10 04:23:43;;;;;;;13.73;8.95;;;16.00;99.90;;;;;;4990373;28;20094;-96
2022/05/10 04:29:13;;;;;;;11.27;8.50;;;16.10;99.90;;;;;;4993086;28;20051;-96
2022/05/10 04:31:56;;;;;;;10.25;8.10;;;16.20;99.90;;;;;;4998886;23;20131;-96
2022/05/10 04:34:33;;;;;;;13.43;8.65;;;16.20;99.90;;;;;;5051109;23;20265;-96
2022/05/10 04:42:58;;;;;;;14.50;9.43;;;16.20;99.90;;;;;;4999879;28;20065;-96
2022/05/10 04:48:04;;;;;;;13.30;9.75;;;16.30;99.90;;;;;;5025056;23;20058;-96
2022/05/10 04:50:38;;;;;;;11.65;9.13;;;16.40;99.90;;;;;;5022365;28;20022;-96
2022/05/10 04:53:15;;;;;;;11.25;8.90;;;16.50;99.90;;;;;;4994709;23;20115;-94
2022/05/10 04:56:19;;;;;;;11.50;8.38;;;16.60;99.90;;;;;;5009445;23;20502;-96
2022/05/10 04:58:49;;;;;;;13.27;8.57;;;16.70;99.90;;;;;;5003276;28;20030;-96
2022/05/10 05:01:26;;;;;;;10.25;7.97;;;16.70;99.90;;;;;;4993317;28;20031;-96
2022/05/10 05:03:56;;;;;;;16.50;8.50;;;16.90;99.90;;;;;;4985944;28;20606;-95
2022/05/10 05:06:25;;;;;;;12.15;8.15;;;17.00;99.90;;;;;;4986926;28;20039;-95
2022/05/10 05:08:51;;;;;;;9.35;8.32;;;17.00;99.90;;;;;;4992216;28;20030;-96
2022/05/10 05:11:20;;;;;;;12.20;9.23;;;17.10;99.90;;;;;;4971100;28;20042;-93
2022/05/10 05:13:49;;;;;;;13.80;8.45;;;17.10;99.90;;;;;;4992252;28;20018;-96
2022/05/10 05:16:15;;;;;;;20.08;10.70;;;17.20;99.90;;;;;;4994619;28;20031;-95
2022/05/10 05:18:41;;;;;;;11.18;8.70;;;17.30;99.90;;;;;;4988515;28;20021;-96
2022/05/10 05:21:06;;;;;;;13.35;8.77;;;17.30;99.90;;;;;;4990910;28;20030;-95
2022/05/10 05:23:32;;;;;;;14.13;8.88;;;17.40;99.90;;;;;;4994618;28;20501;-96
2022/05/10 05:25:58;;;;;;;11.73;8.27;;;17.40;99.90;;;;;;4990506;28;20089;-95
2022/05/10 05:28:24;;;;;;;14.57;8.48;;;17.50;99.90;;;;;;4989205;28;20041;-94
2022/05/10 05:30:50;;;;;;;13.23;8.43;;;17.60;99.90;;;;;;4986361;28;20050;-95
2022/05/10 05:33:16;;;;;;;17.75;8.75;;;17.60;99.90;;;;;;4987278;28;20030;-94
2022/05/10 05:35:42;;;;;;;13.57;8.35;;;17.70;99.90;;;;;;4987733;28;20037;-93
2022/05/10 05:38:08;;;;;;;10.52;8.18;;;17.80;99.90;;;;;;4979163;28;20026;-96
2022/05/10 05:40:36;;;;;;;12.55;8.65;;;17.90;99.90;;;;;;4997565;28;20117;-95
2022/05/10 05:43:02;;;;;;;10.88;7.82;;;17.90;99.90;;;;;;4987814;28;20027;-94
2022/05/10 05:45:28;;;;;;;10.02;8.18;;;18.00;99.90;;;;;;4996238;28;20022;-96
2022/05/10 05:47:54;;;;;;;15.70;7.70;;;18.10;99.90;;;;;;4998312;28;20101;-94
2022/05/10 05:50:22;;;;;;;10.32;7.97;;;18.20;99.90;;;;;;4995003;28;20038;-94
2022/05/10 05:52:52;;;;;;;12.30;8.13;;;18.20;99.90;;;;;;5002182;28;20114;-95
2022/05/10 05:55:19;;;;;;;13.52;7.93;;;18.30;99.90;;;;;;5000293;28;20042;-96
2022/05/10 05:57:49;;;;;;;10.27;7.72;;;18.40;99.90;;;;;;4998224;28;20086;-96
2022/05/10 06:00:18;;;;;;;13.15;7.60;;;18.40;99.90;;;;;;4994257;28;20031;-96
2022/05/10 06:02:45;;;;;;;10.18;7.43;;;18.60;99.90;;;;;;4985468;28;20026;-95
2022/05/10 06:05:11;;;;;;;10.43;8.43;;;18.70;99.90;;;;;;4984509;28;20031;-96
2022/05/10 06:07:45;;;;;;;8.77;7.32;;;18.70;99.90;;;;;;5001205;23;20038;-96
2022/05/10 06:10:12;;;;;;;10.98;7.72;;;18.80;99.90;;;;;;5006773;28;20077;-96
2022/05/10 06:12:49;;;;;;;9.40;6.95;;;18.90;99.90;;;;;;4995578;28;20035;-96
2022/05/10 06:15:21;;;;;;;11.82;7.80;;;19.10;99.90;;;;;;4952708;28;20034;-96
2022/05/10 06:17:48;;;;;;;12.38;7.57;;;19.20;99.90;;;;;;4977224;28;20046;-96
2022/05/10 06:20:36;;;;;;;11.88;7.38;;;19.20;99.90;;;;;;4982191;28;20496;-94
2022/05/10 06:23:03;;;;;;;11.38;7.35;;;19.30;99.90;;;;;;4968174;28;20042;-96
2022/05/10 06:25:29;;;;;;;9.57;7.32;;;19.40;99.90;;;;;;4949160;28;20037;-94
2022/05/10 06:28:02;;;;;;;8.98;7.63;;;19.50;99.90;;;;;;4969732;28;20035;-92
2022/05/10 06:30:29;;;;;;;10.13;7.55;;;19.60;99.90;;;;;;4980169;28;20030;-95
2022/05/10 06:33:02;;;;;;;9.10;7.38;;;19.60;99.90;;;;;;4980363;28;20073;-96
2022/05/10 06:35:29;;;;;;;12.85;7.63;;;19.60;99.90;;;;;;4973118;28;20030;-91
2022/05/10 06:40:40;;;;;;;10.38;7.03;;;19.80;99.90;;;;;;4984502;28;20540;-96
2022/05/10 06:43:05;;;;;;;8.52;7.25;;;19.90;99.90;;;;;;4984449;28;20088;-96
2022/05/10 06:45:32;;;;;;;14.23;7.63;;;19.90;99.90;;;;;;4957331;28;20028;-95
2022/05/10 06:47:57;;;;;;;13.38;7.53;;;20.00;99.90;;;;;;4979086;28;20045;-94
2022/05/10 06:50:25;;;;;;;45.53;8.50;;;20.10;99.90;;;;;;4988482;28;20031;-94
2022/05/10 06:52:57;;;;;;;37.75;8.02;;;20.10;99.90;;;;;;4987964;28;20030;-88
2022/05/10 06:55:23;;;;;;;;;;;20.20;99.90;;;;;;4978680;28;20027;-89
2022/05/10 06:57:49;;;;;;;10.13;6.95;;;20.30;99.90;;;;;;4973971;28;20390;-88
2022/05/10 07:00:19;;;;;;;16.05;6.90;;;20.40;99.90;;;;;;4984251;28;20469;-88
2022/05/10 07:02:51;;;;;;;10.73;6.57;;;20.50;99.90;;;;;;4972399;28;20034;-88
2022/05/10 07:05:18;;;;;;;13.35;6.88;;;20.60;99.90;;;;;;4963974;28;20478;-87
2022/05/10 07:07:45;;;;;;;10.23;6.68;;;20.60;99.90;;;;;;4975417;28;20039;-88
2022/05/10 07:10:16;;;;;;;12.50;6.85;;;20.70;99.90;;;;;;4977409;28;20023;-90
2022/05/10 07:12:43;;;;;;;8.20;6.78;;;20.80;99.90;;;;;;4960898;28;20252;-89
2022/05/10 07:15:17;;;;;;;10.32;6.75;;;20.90;99.90;;;;;;4975604;28;20033;-90
2022/05/10 07:17:42;;;;;;;9.63;7.00;;;21.00;99.90;;;;;;4981509;28;20496;-89
2022/05/10 07:20:11;;;;;;;10.38;7.13;;;21.00;99.90;;;;;;4980189;28;20058;-91
2022/05/10 07:22:38;;;;;;;11.43;7.82;;;21.10;99.90;;;;;;4974142;28;20019;-90
2022/05/10 07:25:04;;;;;;;10.80;6.68;;;21.20;99.90;;;;;;4980145;28;20480;-90
2022/05/10 07:27:30;;;;;;;9.82;6.90;;;21.30;99.90;;;;;;4976715;28;20015;-89
2022/05/10 07:29:56;;;;;;;11.63;7.50;;;21.30;99.90;;;;;;4985245;28;20031;-92
2022/05/10 07:32:24;;;;;;;10.32;6.45;;;21.30;99.90;;;;;;4976924;28;20049;-92
2022/05/10 07:34:50;;;;;;;9.60;6.75;;;21.40;99.90;;;;;;4982645;28;20021;-92
2022/05/10 07:37:18;;;;;;;10.50;6.65;;;21.50;99.90;;;;;;4977549;28;20434;-88
2022/05/10 07:39:47;;;;;;;10.18;6.90;;;21.60;99.90;;;;;;4981824;28;20474;-87
2022/05/10 07:42:13;;;;;;;8.68;6.32;;;21.70;99.90;;;;;;4958886;28;20046;-88
2022/05/10 07:44:38;;;;;;;13.15;7.30;;;21.70;99.90;;;;;;4972658;28;20038;-87
2022/05/10 07:47:04;;;;;;;12.57;6.95;;;21.70;99.90;;;;;;4962647;28;20042;-87
2022/05/10 07:49:30;;;;;;;10.65;6.45;;;21.80;99.90;;;;;;4960418;28;20031;-87
2022/05/10 07:51:56;;;;;;;14.82;6.50;;;21.90;99.90;;;;;;4964933;28;20039;-87
2022/05/10 07:54:23;;;;;;;9.73;6.70;;;21.90;99.90;;;;;;4959438;28;20549;-86
2022/05/10 07:56:49;;;;;;;9.77;6.15;;;22.00;99.90;;;;;;4960976;28;20073;-86
2022/05/10 07:59:15;;;;;;;9.07;6.22;;;22.10;99.90;;;;;;4965404;28;20055;-87
2022/05/10 08:01:41;;;;;;;7.47;6.35;;;22.20;99.90;;;;;;4969414;28;20023;-84
2022/05/10 08:04:08;;;;;;;14.48;6.40;;;22.30;99.90;;;;;;4975106;28;20089;-96
2022/05/10 08:06:33;;;;;;;9.98;6.38;;;22.40;99.90;;;;;;4961267;28;20027;-86
2022/05/10 08:09:02;;;;;;;15.35;7.18;;;22.50;99.90;;;;;;4961142;28;20569;-86
2022/05/10 08:11:31;;;;;;;12.27;6.53;;;22.60;99.90;;;;;;4960354;28;20034;-83
2022/05/10 08:13:57;;;;;;;14.88;7.07;;;22.50;99.90;;;;;;4976719;28;20027;-89
2022/05/10 08:16:31;;;;;;;12.00;7.28;;;22.70;99.90;;;;;;4976092;28;20105;-77
2022/05/10 08:18:59;;;;;;;18.02;8.00;;;22.60;99.90;;;;;;4963034;28;20034;-81
2022/05/10 08:21:28;;;;;;;15.05;7.22;;;22.50;99.90;;;;;;4966172;28;20023;-79
2022/05/10 08:23:55;;;;;;;10.65;7.63;;;22.20;99.90;;;;;;4942704;28;20633;-78
2022/05/10 08:26:22;;;;;;;11.95;7.35;;;22.00;99.90;;;;;;4962017;28;20105;-79
2022/05/10 08:28:48;;;;;;;11.15;6.93;;;22.00;99.90;;;;;;4962212;28;20031;-79
2022/05/10 08:31:14;;;;;;;10.98;7.68;;;21.80;99.90;;;;;;4961191;28;20573;-79
2022/05/10 08:33:43;;;;;;;12.23;7.07;;;21.50;99.90;;;;;;4963324;28;20055;-80
2022/05/10 08:36:10;;;;;;;12.40;7.85;;;21.60;99.90;;;;;;4962637;28;20035;-87
2022/05/10 08:38:37;;;;;;;17.13;8.48;;;21.50;99.90;;;;;;4969529;28;20022;-90
2022/05/10 08:41:02;;;;;;;12.50;8.30;;;21.10;99.90;;;;;;4963606;28;20031;-84
2022/05/10 08:43:56;;;;;;;12.75;8.25;;;21.00;99.90;;;;;;4964630;28;20027;-91
2022/05/10 08:46:31;;;;;;;13.27;8.68;;;20.90;99.90;;;;;;4961242;28;20398;-90
2022/05/10 08:49:08;;;;;;;14.82;8.30;;;20.80;99.90;;;;;;4970300;28;20026;-91
2022/05/10 08:51:36;;;;;;;12.93;7.82;;;20.90;99.90;;;;;;4963543;28;20038;-89
2022/05/10 08:54:02;;;;;;;14.15;8.13;;;20.80;99.90;;;;;;4968641;28;20024;-91
2022/05/10 08:56:39;;;;;;;11.52;7.70;;;20.80;99.90;;;;;;4981303;28;20141;-95
2022/05/10 08:59:15;;;;;;;12.55;8.07;;;20.80;99.90;;;;;;4976427;28;20097;-91
2022/05/10 09:01:52;;;;;;;11.82;8.18;;;21.00;99.90;;;;;;4971595;28;20024;-89
2022/05/10 09:04:29;;;;;;;19.20;7.65;;;21.10;99.90;;;;;;4977584;28;20026;-90
2022/05/10 09:07:17;;;;;;;13.93;8.05;;;21.10;99.90;;;;;;4979860;28;20022;-88
2022/05/10 09:10:07;;;;;;;16.08;7.85;;;21.10;99.90;;;;;;4962476;28;20133;-89
2022/05/10 09:12:44;;;;;;;9.25;7.63;;;21.10;99.90;;;;;;4974546;28;20461;-92
2022/05/10 09:15:12;;;;;;;15.52;7.72;;;21.20;99.90;;;;;;4960140;28;20027;-88
2022/05/10 09:17:39;;;;;;;10.32;7.82;;;21.30;99.90;;;;;;4967005;28;20383;-87
2022/05/10 09:20:08;;;;;;;13.02;7.88;;;21.50;99.90;;;;;;4979700;28;20037;-86
2022/05/10 09:22:34;;;;;;;12.05;8.70;;;21.50;99.90;;;;;;4975090;28;20034;-89
2022/05/10 09:24:59;;;;;;;18.98;8.38;;;21.60;99.90;;;;;;4979075;28;20037;-86
2022/05/10 09:27:34;;;;;;;12.52;8.05;;;21.60;99.90;;;;;;4977473;28;20027;-84
2022/05/10 09:30:00;;;;;;;13.02;8.30;;;21.60;99.90;;;;;;4974155;28;20053;-88
2022/05/10 09:35:23;;;;;;;18.58;7.45;;;21.90;99.90;;;;;;4964553;28;20034;-95
2022/05/10 09:37:54;;;;;;;23.42;7.90;;;22.20;99.90;;;;;;4973845;28;20025;-94
2022/05/10 09:40:34;;;;;;;14.82;6.90;;;22.40;99.90;;;;;;4984534;28;20029;-94
2022/05/10 09:43:17;;;;;;;10.95;7.13;;;22.50;99.90;;;;;;4961798;28;20034;-93
2022/05/10 09:45:43;;;;;;;13.45;7.55;;;22.60;99.90;;;;;;4966028;28;20019;-92
2022/05/10 09:48:09;;;;;;;12.43;6.45;;;22.50;99.90;;;;;;4989722;28;20037;-95
2022/05/10 09:50:39;;;;;;;10.52;6.95;;;22.70;99.90;;;;;;4988129;28;20034;-95
2022/05/10 09:53:27;;;;;;;12.38;7.25;;;22.80;99.90;;;;;;4969402;28;20055;-95
2022/05/10 09:56:08;;;;;;;10.80;7.25;;;22.80;99.90;;;;;;4975871;28;20118;-95
2022/05/10 09:58:43;;;;;;;9.98;7.05;;;22.80;99.90;;;;;;4983377;28;20113;-92
2022/05/10 10:01:11;;;;;;;12.90;7.20;;;22.70;99.90;;;;;;4971490;28;20528;-90
2022/05/10 10:03:42;;;;;;;10.68;7.05;;;22.60;99.90;;;;;;4968969;28;20023;-93
2022/05/10 10:06:20;;;;;;;9.38;7.03;;;22.50;99.90;;;;;;4965661;28;20031;-92
2022/05/10 10:08:45;;;;;;;13.20;6.70;;;22.70;99.90;;;;;;4964540;28;20435;-93
2022/05/10 10:11:16;;;;;;;13.90;7.07;;;22.60;99.90;;;;;;4962888;28;20074;-92
2022/05/10 10:13:43;;;;;;;14.88;7.68;;;22.60;99.90;;;;;;4969644;28;20057;-94
2022/05/10 10:16:24;;;;;;;12.52;6.97;;;22.60;99.90;;;;;;4962647;28;20085;-91
2022/05/10 10:18:53;;;;;;;11.95;6.90;;;22.80;99.90;;;;;;4951697;28;20066;-93
2022/05/10 10:21:49;;;;;;;12.95;7.15;;;22.80;99.90;;;;;;4958618;28;20033;-93
2022/05/10 10:24:29;;;;;;;11.95;7.35;;;22.70;99.90;;;;;;4956770;28;20052;-94
2022/05/10 10:27:02;;;;;;;14.95;7.50;;;22.70;99.90;;;;;;4972366;28;20027;-91
2022/05/10 10:29:36;;;;;;;9.40;7.00;;;22.70;99.90;;;;;;4969246;28;20019;-92
2022/05/10 10:32:08;;;;;;;13.63;7.05;;;22.80;99.90;;;;;;4971214;28;20117;-94
2022/05/10 10:34:54;;;;;;;15.20;6.43;;;22.90;99.90;;;;;;4974043;28;20077;-92
2022/05/10 10:37:39;;;;;;;8.55;6.82;;;22.80;99.90;;;;;;4957708;28;20031;-95
2022/05/10 10:40:36;;;;;;;9.63;6.68;;;22.60;99.90;;;;;;4958795;28;20050;-94
2022/05/10 10:43:07;;;;;;;12.35;7.13;;;22.50;99.90;;;;;;4952192;29;20118;-94
2022/05/10 10:45:47;;;;;;;9.02;6.30;;;22.50;99.90;;;;;;4964290;28;20367;-93
2022/05/10 10:48:38;;;;;;;10.38;6.53;;;22.50;99.90;;;;;;4945893;28;20462;-93
2022/05/10 10:51:03;;;;;;;12.57;7.15;;;22.40;99.90;;;;;;4966899;28;20041;-94
2022/05/10 10:53:34;;;;;;;9.18;6.95;;;22.50;99.90;;;;;;4968139;28;20266;-91
2022/05/10 10:56:06;;;;;;;11.60;7.00;;;22.50;99.90;;;;;;4967819;28;21062;-94
2022/05/10 10:58:34;;;;;;;12.55;6.90;;;22.60;99.90;;;;;;4980413;28;20033;-93
2022/05/10 11:01:13;;;;;;;8.82;5.28;;;22.60;99.90;;;;;;4980897;28;20023;-93
2022/05/10 11:03:39;;;;;;;10.05;6.15;;;22.70;99.90;;;;;;4966473;28;20453;-96
2022/05/10 11:06:22;;;;;;;14.65;7.18;;;22.60;99.90;;;;;;4963651;28;20126;-93
2022/05/10 11:09:26;;;;;;;11.38;7.07;;;22.80;99.90;;;;;;4969301;28;20394;-94
2022/05/10 11:12:06;;;;;;;7.47;6.40;;;22.90;99.90;;;;;;4949644;28;20055;-93
2022/05/10 11:14:48;;;;;;;8.52;6.63;;;22.90;99.90;;;;;;4965185;28;20027;-93
2022/05/10 11:17:16;;;;;;;16.38;7.57;;;22.90;99.90;;;;;;4945920;28;20231;-92
2022/05/10 11:20:15;;;;;;;14.65;7.60;;;23.00;99.90;;;;;;4972682;28;20482;-93
2022/05/10 11:22:48;;;;;;;13.98;7.03;;;22.80;99.90;;;;;;4937693;28;20114;-87
2022/05/10 11:25:33;;;;;;;13.32;7.47;;;22.80;99.90;;;;;;4959413;28;20027;-87
2022/05/10 11:28:28;;;;;;;10.60;7.10;;;22.70;99.90;;;;;;4965501;28;20058;-88
2022/05/10 11:31:26;;;;;;;14.52;7.32;;;22.90;99.90;;;;;;4960944;28;20026;-88
2022/05/10 11:34:17;;;;;;;12.75;6.97;;;22.90;99.90;;;;;;4963979;28;20037;-89
2022/05/10 11:36:49;;;;;;;13.30;7.45;;;23.10;99.90;;;;;;4964179;28;20597;-91
2022/05/10 11:39:53;;;;;;;9.23;7.27;;;23.10;99.90;;;;;;4970796;28;20053;-90
2022/05/10 11:42:26;;;;;;;18.88;7.25;;;23.20;99.90;;;;;;4976611;28;20055;-94
2022/05/10 11:45:29;;;;;;;12.13;7.15;;;23.20;99.90;;;;;;4977042;28;20059;-91
2022/05/10 11:48:08;;;;;;;13.98;7.50;;;23.40;99.90;;;;;;4971082;28;20113;-91
2022/05/10 11:54:07;;;;;;;9.95;7.20;;;23.50;99.90;;;;;;4972894;28;20058;-90
2022/05/10 11:56:37;;;;;;;9.23;6.97;;;23.40;99.90;;;;;;4950939;28;20027;-88
2022/05/10 11:59:05;;;;;;;12.13;7.30;;;23.30;99.90;;;;;;4970222;28;20037;-90
2022/05/10 12:01:51;;;;;;;8.50;6.20;;;23.90;99.90;;;;;;4953280;28;20022;-90
2022/05/10 12:04:32;;;;;;;12.90;6.95;;;27.10;99.90;;;;;;4955657;28;20034;-89
2022/05/10 12:07:24;;;;;;;10.07;6.38;;;29.00;99.90;;;;;;4949119;28;20491;-90
2022/05/10 12:11:44;;;;;;;12.13;6.43;;;30.00;99.90;;;;;;5121123;27;20499;-93
2022/05/10 12:22:59;;;;;;;7.75;6.85;;;29.70;99.90;;;;;;5128760;28;20031;-91
2022/05/10 12:25:59;;;;;;;12.45;6.85;;;30.50;99.90;;;;;;5120945;28;20075;-90
2022/05/10 12:28:41;;;;;;;9.68;7.10;;;30.30;99.90;;;;;;5108330;28;20020;-91
2022/05/10 12:32:17;;;;;;;11.13;6.85;;;30.60;99.90;;;;;;5118390;28;20038;-92
2022/05/10 12:34:53;;;;;;;8.38;7.07;;;30.80;99.90;;;;;;5074024;28;20035;-89
2022/05/10 12:37:26;;;;;;;14.65;7.82;;;31.10;99.90;;;;;;5106647;28;20394;-86
2022/05/10 12:40:01;;;;;;;12.77;8.10;;;31.60;99.90;;;;;;5108492;28;20024;-88
2022/05/10 12:42:38;;;;;;;10.15;8.88;;;32.50;99.90;;;;;;5091396;28;20050;-90
2022/05/10 12:45:27;;;;;;;10.18;8.40;;;32.70;99.90;;;;;;5107472;28;20027;-88
2022/05/10 12:48:07;;;;;;;14.20;9.38;;;32.00;99.90;;;;;;5106619;28;20027;-89
2022/05/10 12:51:09;;;;;;;11.65;8.82;;;32.40;99.90;;;;;;5101387;28;20035;-91
2022/05/10 12:53:42;;;;;;;14.25;8.07;;;32.30;99.90;;;;;;5108227;28;20028;-90
2022/05/10 12:56:22;;;;;;;14.23;9.63;;;32.80;99.90;;;;;;5110703;28;20020;-90
2022/05/10 12:58:51;;;;;;;13.25;8.50;;;32.50;99.90;;;;;;5092788;28;20031;-89
2022/05/10 13:01:19;;;;;;;14.65;9.70;;;31.70;99.90;;;;;;5108935;28;20016;-88
2022/05/10 13:03:55;;;;;;;17.40;10.82;;;32.10;99.90;;;;;;5092945;28;20600;-89
2022/05/10 13:06:27;;;;;;;14.02;9.60;;;31.70;99.90;;;;;;5109012;28;20012;-89
2022/05/10 13:09:06;;;;;;;17.92;9.10;;;32.10;99.90;;;;;;5086529;28;20032;-87
2022/05/10 13:11:44;;;;;;;12.38;9.60;;;32.80;99.90;;;;;;5107373;28;20046;-88
2022/05/10 13:14:14;;;;;;;12.20;8.73;;;33.70;99.90;;;;;;5107024;28;20052;-89
2022/05/10 13:16:49;;;;;;;11.85;8.02;;;33.40;99.90;;;;;;5107948;28;20432;-89
2022/05/10 13:19:21;;;;;;;11.93;9.85;;;33.90;99.90;;;;;;5107169;28;20422;-89
2022/05/10 13:21:48;;;;;;;13.60;8.50;;;35.30;99.90;;;;;;5101669;28;20036;-90
2022/05/10 13:24:16;;;;;;;14.32;8.82;;;35.20;99.90;;;;;;5093937;28;20082;-89
2022/05/10 13:27:03;;;;;;;11.82;8.05;;;34.30;99.90;;;;;;5094050;28;20032;-89
2022/05/10 13:30:09;;;;;;;11.25;8.80;;;34.20;98.90;;;;;;5077563;28;20035;-89
2022/05/10 13:32:39;;;;;;;14.15;8.68;;;34.00;99.90;;;;;;5086516;28;20128;-91
2022/05/10 13:35:13;;;;;;;11.57;8.20;;;34.50;98.80;;;;;;5091568;28;20020;-90
2022/05/10 13:37:43;;;;;;;11.40;7.32;;;35.50;97.50;;;;;;5093521;28;20042;-89
2022/05/10 13:40:22;;;;;;;14.63;6.82;;;36.10;95.30;;;;;;5093988;28;20020;-89
2022/05/10 13:42:48;;;;;;;12.48;7.68;;;35.50;94.90;;;;;;5093253;28;20029;-88
2022/05/10 13:45:24;;;;;;;15.23;7.80;;;36.30;94.80;;;;;;5075715;28;20028;-87
2022/05/10 13:48:12;;;;;;;19.58;7.60;;;36.20;94.30;;;;;;5073015;28;20482;-89
2022/05/10 13:50:40;;;;;;;10.35;6.95;;;35.40;92.80;;;;;;5083921;28;20043;-89
2022/05/10 13:53:08;;;;;;;12.15;8.32;;;35.20;93.80;;;;;;5093018;28;20052;-90
2022/05/10 13:55:40;;;;;;;13.45;7.88;;;35.20;92.90;;;;;;5082524;28;20061;-90